Time;durP1;ratioP1;P1;durP2;ratioP2;P2;SDS_P1;SDS_P2;PMS_P1;PMS_P2;Temp;Humidity;BMP_temperature;BMP_pressure;BME280_temperature;BME280_humidity;BME280_pressure;Samples;Min_cycle;Max_cycle;Signal;HPM_P1;HPM_P2
2021/01/26 00:01:18;;;;;;;;;;;;;;;0.45;75.46;97238.11;1627944;88;20301;-86
2021/01/26 00:04:04;;;;;;;;;;;;;;;0.43;75.44;97240.77;1627202;88;25039;-86
2021/01/26 00:06:51;;;;;;;;;;;;;;;0.38;75.43;97238.40;1626749;87;23206;-86
2021/01/26 00:09:36;;;;;;;;;;;;;;;0.36;75.43;97245.38;1627983;87;26251;-86
2021/01/26 00:12:23;;;;;;;;;;;;;;;0.35;75.41;97246.28;1627224;88;24653;-86
2021/01/26 00:15:09;;;;;;;;;;;;;;;0.33;75.39;97242.10;1627833;87;20292;-85
2021/01/26 00:17:56;;;;;;;;;;;;;;;0.28;75.36;97251.78;1628028;87;25086;-84
2021/01/26 00:20:43;;;;;;;;;;;;;;;0.21;75.34;97246.12;1633678;87;22135;-85
2021/01/26 00:23:30;;;;;;;;;;;;;;;0.15;75.34;97250.27;1633738;86;26387;-85
2021/01/26 00:26:18;;;;;;;;;;;;;;;0.09;75.29;97251.84;1633922;86;24636;-84
2021/01/26 00:29:04;;;;;;;;;;;;;;;0.05;75.29;97256.75;1634636;87;20267;-84
2021/01/26 00:31:50;;;;;;;;;;;;;;;0.03;75.27;97259.84;1633644;87;25941;-84
2021/01/26 00:34:37;;;;;;;;;;;;;;;0.02;75.28;97265.88;1633785;87;22355;-84
2021/01/26 00:37:23;;;;;;;;;;;;;;;0.01;75.26;97266.78;1633551;87;26310;-85
2021/01/26 00:40:11;;;;;;;;;;;;;;;0.02;75.27;97265.88;1633264;86;24604;-85
2021/01/26 00:42:57;;;;;;;;;;;;;;;0.00;75.28;97271.56;1632330;86;20294;-84
2021/01/26 00:45:44;;;;;;;;;;;;;;;-0.01;75.29;97267.33;1633257;87;25100;-87
2021/01/26 00:48:30;;;;;;;;;;;;;;;-0.04;75.29;97265.71;1633921;87;22256;-82
2021/01/26 00:51:16;;;;;;;;;;;;;;;-0.04;75.31;97264.87;1634420;87;26245;-82
2021/01/26 00:54:02;;;;;;;;;;;;;;;-0.05;75.34;97269.62;1633601;87;24821;-82
2021/01/26 00:56:48;;;;;;;;;;;;;;;-0.07;75.36;97273.58;1633794;86;20279;-82
2021/01/26 00:59:34;;;;;;;;;;;;;;;-0.06;75.37;97274.42;1633600;87;24927;-82
2021/01/26 01:02:20;;;;;;;;;;;;;;;-0.04;75.41;97279.02;1633538;87;22201;-82
2021/01/26 01:05:06;;;;;;;;;;;;;;;-0.06;75.42;97277.83;1634012;87;26102;-88
2021/01/26 01:07:53;;;;;;;;;;;;;;;-0.04;75.43;97281.14;1634116;87;24579;-88
2021/01/26 01:10:40;;;;;;;;;;;;;;;-0.04;75.44;97281.14;1634109;87;20539;-88
2021/01/26 01:13:27;;;;;;;;;;;;;;;-0.05;75.49;97285.06;1633292;87;25889;-87
2021/01/26 01:16:13;;;;;;;;;;;;;;;-0.15;75.49;97279.96;1633072;87;22075;-87
2021/01/26 01:18:59;;;;;;;;;;;;;;;-0.05;75.52;97297.91;1632054;87;26115;-86
2021/01/26 01:21:48;;;;;;;;;;;;;;;-0.07;75.55;97295.89;1631015;88;24633;-86
2021/01/26 01:24:34;;;;;;;;;;;;;;;-0.09;75.56;97293.38;1630383;88;20545;-86
2021/01/26 01:27:20;;;;;;;;;;;;;;;-0.12;75.59;97292.70;1631585;88;25853;-86
2021/01/26 01:30:09;;;;;;;;;;;;;;;-0.14;75.61;97285.05;1632160;87;22147;-87
2021/01/26 01:32:54;;;;;;;;;;;;;;;-0.14;75.63;97284.20;1631299;88;26321;-86
2021/01/26 01:35:41;;;;;;;;;;;;;;;-0.17;75.67;97277.94;1631701;88;25492;-86
2021/01/26 01:38:26;;;;;;;;;;;;;;;-0.17;75.69;97274.08;1630982;88;20801;-86
2021/01/26 01:41:13;;;;;;;;;;;;;;;-0.17;75.71;97268.94;1630545;88;25187;-87
2021/01/26 01:44:02;;;;;;;;;;;;;;;-0.17;75.73;97271.05;1630958;88;22078;-86
2021/01/26 01:46:51;;;;;;;;;;;;;;;-0.15;75.76;97272.25;1631588;87;27070;-86
2021/01/26 01:49:37;;;;;;;;;;;;;;;-0.14;75.79;97286.77;1630564;88;24588;-86
2021/01/26 01:52:25;;;;;;;;;;;;;;;-0.17;75.83;97283.91;1632200;87;20419;-87
2021/01/26 01:55:10;;;;;;;;;;;;;;;-0.16;75.86;97287.28;1632174;87;24898;-86
2021/01/26 01:57:59;;;;;;;;;;;;;;;-0.15;75.87;97283.37;1631937;88;22324;-86
2021/01/26 02:00:45;;;;;;;;;;;;;;;-0.13;75.91;97288.45;1630668;88;26192;-86
2021/01/26 02:03:31;;;;;;;;;;;;;;;-0.12;75.95;97290.13;1631688;88;24867;-86
2021/01/26 02:06:17;;;;;;;;;;;;;;;-0.11;75.96;97294.37;1631375;88;20305;-87
2021/01/26 02:09:04;;;;;;;;;;;;;;;-0.10;75.99;97291.70;1632526;86;24989;-87
2021/01/26 02:11:49;;;;;;;;;;;;;;;-0.06;76.01;97294.54;1631456;88;22958;-87
2021/01/26 02:14:36;;;;;;;;;;;;;;;-0.08;76.04;97292.92;1631495;87;27024;-86
2021/01/26 02:17:22;;;;;;;;;;;;;;;-0.05;76.07;97296.63;1631912;88;24693;-87
2021/01/26 02:20:08;;;;;;;;;;;;;;;-0.01;76.10;97301.59;1615252;87;20471;-86
2021/01/26 02:22:54;;;;;;;;;;;;;;;0.00;76.13;97306.28;1577012;90;25003;-88
2021/01/26 02:25:28;;;;;;;;;;;;;;;0.05;76.18;97302.20;1554798;91;22128;-88
2021/01/26 02:28:14;;;;;;;;;;;;;;;0.08;76.20;97304.17;1609481;89;26860;-88
2021/01/26 02:31:00;;;;;;;;;;;;;;;0.13;76.24;97305.24;1608978;89;24951;-88
2021/01/26 02:33:45;;;;;;;;;;;;;;;0.15;76.28;97306.02;1607931;89;20273;-87
2021/01/26 02:36:31;;;;;;;;;;;;;;;0.15;76.29;97309.43;1609722;88;24915;-87
2021/01/26 02:39:21;;;;;;;;;;;;;;;0.08;76.31;97314.47;1608545;89;22281;-87
2021/01/26 02:42:07;;;;;;;;;;;;;;;0.04;76.33;97317.25;1609473;88;27081;-86
2021/01/26 02:44:53;;;;;;;;;;;;;;;-0.03;76.32;97324.41;1612533;89;24692;-86
2021/01/26 02:47:39;;;;;;;;;;;;;;;-0.06;76.35;97315.56;1610032;89;20287;-86
2021/01/26 02:50:26;;;;;;;;;;;;;;;-0.07;76.32;97317.74;1608675;88;24929;-86
2021/01/26 02:53:12;;;;;;;;;;;;;;;-0.10;76.33;97316.58;1610522;89;22155;-86
2021/01/26 02:55:58;;;;;;;;;;;;;;;-0.12;76.34;97315.84;1578409;90;26124;-86
2021/01/26 02:58:44;;;;;;;;;;;;;;;-0.12;76.34;97318.41;1554526;91;24699;-86
2021/01/26 03:01:29;;;;;;;;;;;;;;;-0.14;76.33;97326.63;1610620;88;20558;-86
2021/01/26 03:04:16;;;;;;;;;;;;;;;-0.17;76.35;97328.91;1610550;89;24932;-86
2021/01/26 03:07:03;;;;;;;;;;;;;;;-0.19;76.37;97332.43;1610421;89;22834;-86
2021/01/26 03:09:50;;;;;;;;;;;;;;;-0.21;76.37;97334.22;1613119;88;26137;-86
2021/01/26 03:12:36;;;;;;;;;;;;;;;-0.22;76.38;97335.16;1609813;88;25517;-86
2021/01/26 03:15:22;;;;;;;;;;;;;;;-0.26;76.39;97338.73;1578309;90;20308;-86
2021/01/26 03:18:09;;;;;;;;;;;;;;;-0.29;76.40;97345.31;1577242;91;25122;-86
2021/01/26 03:20:56;;;;;;;;;;;;;;;-0.31;76.42;97350.52;1585357;90;22289;-84
2021/01/26 03:23:30;;;;;;;;;;;;;;;-0.31;76.44;97351.80;1586281;90;26317;-88
2021/01/26 03:26:16;;;;;;;;;;;;;;;-0.31;76.45;97354.37;1573237;91;25464;-88
2021/01/26 03:29:03;;;;;;;;;;;;;;;-0.31;76.48;97348.39;1569167;91;20316;-87
2021/01/26 03:31:49;;;;;;;;;;;;;;;-0.32;76.51;97350.56;1570639;91;25008;-87
2021/01/26 03:34:35;;;;;;;;;;;;;;;-0.32;76.54;97353.14;1597290;89;22939;-87
2021/01/26 03:37:21;;;;;;;;;;;;;;;-0.31;76.57;97356.09;1593571;89;26316;-87
2021/01/26 03:40:07;;;;;;;;;;;;;;;-0.32;76.60;97359.56;1633500;87;25467;-87
2021/01/26 03:42:53;;;;;;;;;;;;;;;-0.34;76.63;97358.81;1633418;87;20287;-87
2021/01/26 03:45:39;;;;;;;;;;;;;;;-0.34;76.63;97363.95;1634255;87;25856;-88
2021/01/26 03:48:26;;;;;;;;;;;;;;;-0.36;76.65;97359.33;1633915;87;22126;-88
2021/01/26 03:51:12;;;;;;;;;;;;;;;-0.35;76.69;97366.14;1635006;87;26803;-87
2021/01/26 03:53:58;;;;;;;;;;;;;;;-0.36;76.72;97364.02;1634073;87;24801;-87
2021/01/26 03:56:44;;;;;;;;;;;;;;;-0.33;76.72;97369.48;1633689;86;20288;-87
2021/01/26 03:59:33;;;;;;;;;;;;;;;-0.32;76.76;97364.70;1634245;87;25120;-88
2021/01/26 04:02:19;;;;;;;;;;;;;;;-0.32;76.78;97371.97;1634048;87;22148;-87
2021/01/26 04:05:05;;;;;;;;;;;;;;;-0.27;76.80;97376.94;1632630;87;26110;-87
2021/01/26 04:07:52;;;;;;;;;;;;;;;-0.28;76.83;97376.10;1633460;87;24783;-87
2021/01/26 04:10:39;;;;;;;;;;;;;;;-0.27;76.85;97375.66;1634372;86;20296;-88
2021/01/26 04:13:25;;;;;;;;;;;;;;;-0.26;76.87;97374.72;1634145;87;24913;-88
2021/01/26 04:16:11;;;;;;;;;;;;;;;-0.27;76.88;97380.31;1634117;87;22162;-89
2021/01/26 04:18:57;;;;;;;;;;;;;;;-0.28;76.92;97385.09;1637301;87;26750;-88
2021/01/26 04:21:43;;;;;;;;;;;;;;;-0.31;76.92;97383.92;1602512;89;24645;-88
2021/01/26 04:24:30;;;;;;;;;;;;;;;-0.34;76.95;97387.93;1602942;89;20295;-88
2021/01/26 04:27:15;;;;;;;;;;;;;;;-0.36;76.94;97382.45;1602277;89;25209;-88
2021/01/26 04:30:05;;;;;;;;;;;;;;;-0.37;76.95;97385.92;1602886;89;22127;-88
2021/01/26 04:32:51;;;;;;;;;;;;;;;-0.39;76.95;97382.16;1602914;89;26137;-87
2021/01/26 04:35:38;;;;;;;;;;;;;;;-0.39;76.97;97389.03;1601163;89;24833;-87
2021/01/26 04:38:24;;;;;;;;;;;;;;;-0.42;76.98;97387.41;1606055;89;20290;-87
2021/01/26 04:41:16;;;;;;;;;;;;;;;-0.41;77.00;97391.66;1602763;89;25894;-87
2021/01/26 04:44:02;;;;;;;;;;;;;;;-0.38;77.00;97398.41;1603098;89;22172;-87
2021/01/26 04:46:35;;;;;;;;;;;;;;;-0.39;77.03;97398.86;1602857;89;25518;-87
2021/01/26 04:49:24;;;;;;;;;;;;;;;-0.37;77.06;97398.77;1602782;89;25451;-88
2021/01/26 04:52:10;;;;;;;;;;;;;;;-0.36;77.05;97397.88;1602341;89;20436;-88
2021/01/26 04:54:56;;;;;;;;;;;;;;;-0.34;77.08;97402.52;1602724;88;25177;-87
2021/01/26 04:57:41;;;;;;;;;;;;;;;-0.31;77.10;97408.80;1601799;89;22328;-88
2021/01/26 05:00:27;;;;;;;;;;;;;;;-0.30;77.12;97408.73;1602238;89;26158;-88
2021/01/26 05:03:13;;;;;;;;;;;;;;;-0.28;77.14;97403.53;1602533;89;24644;-88
2021/01/26 05:06:00;;;;;;;;;;;;;;;-0.27;77.18;97408.59;1602885;89;20732;-88
2021/01/26 05:08:46;;;;;;;;;;;;;;;-0.27;77.19;97404.73;1602635;88;25775;-88
2021/01/26 05:11:32;;;;;;;;;;;;;;;-0.29;77.21;97407.00;1601698;89;22177;-88
2021/01/26 05:14:17;;;;;;;;;;;;;;;-0.28;77.21;97412.09;1602883;89;26232;-88
2021/01/26 05:17:09;;;;;;;;;;;;;;;-0.27;77.22;97412.92;1602930;89;25574;-88
2021/01/26 05:19:54;;;;;;;;;;;;;;;-0.24;77.24;97411.49;1605878;88;20480;-88
2021/01/26 05:22:40;;;;;;;;;;;;;;;-0.23;77.24;97409.31;1609398;89;24903;-87
2021/01/26 05:25:27;;;;;;;;;;;;;;;-0.23;77.26;97414.00;1610932;89;22095;-86
2021/01/26 05:28:13;;;;;;;;;;;;;;;-0.22;77.28;97411.80;1610719;89;26194;-86
2021/01/26 05:31:07;;;;;;;;;;;;;;;-0.19;77.27;97414.70;1611236;88;24689;-85
2021/01/26 05:33:53;;;;;;;;;;;;;;;-0.18;77.29;97415.09;1609433;89;20323;-86
2021/01/26 05:36:39;;;;;;;;;;;;;;;-0.18;77.29;97417.66;1609465;89;25051;-86
2021/01/26 05:39:25;;;;;;;;;;;;;;;-0.21;77.28;97412.63;1608567;89;22161;-86
2021/01/26 05:42:11;;;;;;;;;;;;;;;-0.24;77.29;97415.34;1610131;89;27132;-86
2021/01/26 05:44:57;;;;;;;;;;;;;;;-0.23;77.30;97417.02;1609028;89;24669;-86
2021/01/26 05:47:46;;;;;;;;;;;;;;;-0.21;77.27;97422.91;1608809;89;20506;-88
2021/01/26 05:50:33;;;;;;;;;;;;;;;-0.21;77.27;97423.75;1609235;88;24889;-88
2021/01/26 05:53:18;;;;;;;;;;;;;;;-0.19;77.26;97423.70;1579097;90;22188;-88
2021/01/26 05:56:09;;;;;;;;;;;;;;;-0.21;77.26;97425.48;1573442;91;27235;-89
2021/01/26 05:58:58;;;;;;;;;;;;;;;-0.22;77.25;97430.27;1573090;91;25549;-85
2021/01/26 06:01:44;;;;;;;;;;;;;;;-0.23;77.23;97432.45;1574676;89;20286;-84
2021/01/26 06:04:33;;;;;;;;;;;;;;;-0.21;77.22;97438.34;1572797;91;24997;-83
2021/01/26 06:07:19;;;;;;;;;;;;;;;-0.22;77.23;97448.27;1574034;90;23317;-82
2021/01/26 06:10:05;;;;;;;;;;;;;;;-0.26;77.21;97448.83;1572703;91;26231;-81
2021/01/26 06:12:51;;;;;;;;;;;;;;;-0.27;77.19;97454.05;1572324;91;24438;-82
2021/01/26 06:15:37;;;;;;;;;;;;;;;-0.29;77.19;97457.13;1573338;91;20280;-81
2021/01/26 06:18:23;;;;;;;;;;;;;;;-0.32;77.18;97461.09;1573322;91;24861;-81
2021/01/26 06:21:11;;;;;;;;;;;;;;;-0.34;77.17;97461.63;1584336;89;22181;-81
2021/01/26 06:23:57;;;;;;;;;;;;;;;-0.35;77.18;97471.52;1589721;90;26223;-81
2021/01/26 06:26:43;;;;;;;;;;;;;;;-0.35;77.19;97471.52;1590628;90;24802;-81
2021/01/26 06:29:29;;;;;;;;;;;;;;;-0.35;77.19;97471.07;1591418;90;20424;-81
2021/01/26 06:32:15;;;;;;;;;;;;;;;-0.33;77.21;97477.44;1590302;90;25091;-81
2021/01/26 06:35:02;;;;;;;;;;;;;;;-0.31;77.23;97479.03;1590805;90;22113;-82
2021/01/26 06:37:50;;;;;;;;;;;;;;;-0.30;77.23;97480.70;1600507;89;26780;-82
2021/01/26 06:40:36;;;;;;;;;;;;;;;-0.26;77.25;97486.09;1590815;90;24655;-82
2021/01/26 06:43:22;;;;;;;;;;;;;;;-0.22;77.25;97488.11;1591335;90;20397;-82
2021/01/26 06:46:10;;;;;;;;;;;;;;;-0.21;77.27;97493.17;1590332;90;25938;-84
2021/01/26 06:48:56;;;;;;;;;;;;;;;-0.20;77.30;97497.41;1591214;90;21482;-84
2021/01/26 06:51:42;;;;;;;;;;;;;;;-0.16;77.29;97492.97;1590012;90;27001;-84
2021/01/26 06:54:27;;;;;;;;;;;;;;;-0.17;77.31;97497.30;1591644;90;24688;-84
2021/01/26 06:57:13;;;;;;;;;;;;;;;-0.18;77.31;97502.05;1591615;90;20370;-83
2021/01/26 06:59:59;;;;;;;;;;;;;;;-0.16;77.31;97496.83;1589819;90;24883;-83
2021/01/26 07:02:45;;;;;;;;;;;;;;;-0.14;77.31;97495.88;1590518;90;22202;-83
2021/01/26 07:05:32;;;;;;;;;;;;;;;-0.08;77.30;97502.05;1590445;90;26149;-86
2021/01/26 07:08:18;;;;;;;;;;;;;;;-0.05;77.33;97502.35;1591062;90;24875;-85
2021/01/26 07:11:03;;;;;;;;;;;;;;;-0.08;77.33;97505.06;1591459;90;20310;-86
2021/01/26 07:13:54;;;;;;;;;;;;;;;-0.10;77.32;97503.00;1590814;90;26005;-87
2021/01/26 07:16:41;;;;;;;;;;;;;;;-0.12;77.31;97511.25;1591346;90;22053;-82
2021/01/26 07:19:27;;;;;;;;;;;;;;;-0.11;77.31;97506.50;1590517;90;26332;-87
2021/01/26 07:22:13;;;;;;;;;;;;;;;-0.13;77.28;97512.14;1597910;89;24938;-86
2021/01/26 07:24:59;;;;;;;;;;;;;;;-0.15;77.27;97519.07;1599490;89;20278;-84
2021/01/26 07:27:45;;;;;;;;;;;;;;;-0.14;77.24;97519.46;1599433;88;25023;-84
2021/01/26 07:30:31;;;;;;;;;;;;;;;-0.13;77.23;97522.42;1599313;89;22181;-84
2021/01/26 07:33:22;;;;;;;;;;;;;;;-0.13;77.21;97528.85;1599572;89;26192;-83
2021/01/26 07:36:08;;;;;;;;;;;;;;;-0.10;77.18;97532.56;1600220;89;24530;-86
2021/01/26 07:39:01;;;;;;;;;;;;;;;-0.06;77.16;97526.42;1598068;89;20482;-83
2021/01/26 07:41:49;;;;;;;;;;;;;;;0.00;77.12;97524.87;1595525;89;25097;-86
2021/01/26 07:44:35;;;;;;;;;;;;;;;0.07;77.12;97526.27;1598274;89;22171;-86
2021/01/26 07:47:22;;;;;;;;;;;;;;;0.13;77.12;97527.30;1600437;89;27002;-83
2021/01/26 07:50:08;;;;;;;;;;;;;;;0.18;77.09;97531.79;1599051;89;24004;-83
2021/01/26 07:52:56;;;;;;;;;;;;;;;0.22;77.07;97529.47;1600800;89;20191;-83
2021/01/26 07:55:43;;;;;;;;;;;;;;;0.25;77.04;97532.37;1598355;89;24915;-83
2021/01/26 07:58:29;;;;;;;;;;;;;;;0.28;77.04;97537.38;1602007;88;22496;-87
2021/01/26 08:01:15;;;;;;;;;;;;;;;0.28;76.98;97533.06;1600227;89;25574;-83
2021/01/26 08:04:01;;;;;;;;;;;;;;;0.30;76.93;97536.41;1599678;89;24717;-82
2021/01/26 08:06:47;;;;;;;;;;;;;;;0.32;76.89;97542.34;1598474;89;20388;-86
2021/01/26 08:09:34;;;;;;;;;;;;;;;0.36;76.84;97540.46;1609689;88;25593;-84
2021/01/26 08:12:24;;;;;;;;;;;;;;;0.39;76.80;97549.32;1633433;86;22283;-83
2021/01/26 08:15:09;;;;;;;;;;;;;;;0.37;76.76;97543.42;1605561;88;27181;-87
2021/01/26 08:17:55;;;;;;;;;;;;;;;0.42;76.71;97546.63;1598052;89;25561;-84
2021/01/26 08:20:41;;;;;;;;;;;;;;;0.44;76.68;97549.14;1597598;88;20294;-84
2021/01/26 08:23:30;;;;;;;;;;;;;;;0.44;76.64;97549.14;1582903;88;24937;-86
2021/01/26 08:26:16;;;;;;;;;;;;;;;0.41;76.59;97556.09;1630904;86;22453;-84
2021/01/26 08:29:03;;;;;;;;;;;;;;;0.39;76.52;97557.04;1631306;88;26173;-84
2021/01/26 08:31:50;;;;;;;;;;;;;;;0.35;76.47;97560.20;1632106;87;24694;-86
2021/01/26 08:34:36;;;;;;;;;;;;;;;0.36;76.39;97559.31;1630948;86;20334;-84
2021/01/26 08:37:24;;;;;;;;;;;;;;;0.40;76.36;97559.55;1632113;87;24765;-83
2021/01/26 08:40:10;;;;;;;;;;;;;;;0.41;76.32;97557.82;1632029;88;22245;-84
2021/01/26 08:42:56;;;;;;;;;;;;;;;0.48;76.28;97567.41;1604342;89;26395;-84
2021/01/26 08:45:42;;;;;;;;;;;;;;;0.54;76.24;97574.42;1598298;89;24713;-83
2021/01/26 08:48:30;;;;;;;;;;;;;;;0.61;76.22;97570.65;1600585;89;20571;-83
2021/01/26 08:51:17;;;;;;;;;;;;;;;0.63;76.18;97571.88;1600354;89;24949;-83
2021/01/26 08:54:02;;;;;;;;;;;;;;;0.62;76.15;97576.63;1632100;88;22045;-83
2021/01/26 08:56:49;;;;;;;;;;;;;;;0.59;76.11;97584.51;1627436;88;26294;-86
2021/01/26 08:59:35;;;;;;;;;;;;;;;0.59;76.06;97582.77;1630795;88;24651;-87
2021/01/26 09:02:23;;;;;;;;;;;;;;;0.60;76.04;97591.33;1606162;89;20310;-86
2021/01/26 09:05:09;;;;;;;;;;;;;;;0.63;75.99;97587.32;1631317;87;24926;-87
2021/01/26 09:07:55;;;;;;;;;;;;;;;0.68;75.95;97589.24;1632516;88;22201;-87
2021/01/26 09:10:42;;;;;;;;;;;;;;;0.69;75.93;97595.62;1632172;87;26312;-85
2021/01/26 09:13:27;;;;;;;;;;;;;;;0.70;75.89;97592.59;1630940;88;24596;-85
2021/01/26 09:16:17;;;;;;;;;;;;;;;0.71;75.86;97592.98;1631224;87;20216;-85
2021/01/26 09:19:05;;;;;;;;;;;;;;;0.73;75.82;97592.00;1632943;88;25683;-85
2021/01/26 09:21:52;;;;;;;;;;;;;;;0.75;75.78;97595.36;1622955;87;22948;-85
2021/01/26 09:24:38;;;;;;;;;;;;;;;0.76;75.74;97597.48;1608449;89;26163;-88
2021/01/26 09:27:25;;;;;;;;;;;;;;;0.71;75.68;97603.28;1609239;89;25718;-87
2021/01/26 09:30:14;;;;;;;;;;;;;;;0.69;75.61;97605.92;1589836;89;20300;-84
2021/01/26 09:33:00;;;;;;;;;;;;;;;0.74;75.55;97600.56;1609478;88;25261;-84
2021/01/26 09:35:46;;;;;;;;;;;;;;;0.79;75.49;97602.03;1610913;89;21532;-88
2021/01/26 09:38:32;;;;;;;;;;;;;;;0.85;75.45;97599.64;1610913;89;26318;-88
2021/01/26 09:41:18;;;;;;;;;;;;;;;0.88;75.39;97598.20;1609350;89;24620;-87
2021/01/26 09:44:04;;;;;;;;;;;;;;;0.89;75.35;97596.47;1610323;89;20391;-86
2021/01/26 09:46:50;;;;;;;;;;;;;;;0.83;75.30;97601.44;1609732;89;24923;-85
2021/01/26 09:49:36;;;;;;;;;;;;;;;0.78;75.24;97596.49;1610211;89;23098;-87
2021/01/26 09:52:23;;;;;;;;;;;;;;;0.71;75.15;97606.67;1609422;89;26259;-85
2021/01/26 09:55:11;;;;;;;;;;;;;;;0.68;75.06;97605.53;1611898;89;25397;-85
2021/01/26 09:57:57;;;;;;;;;;;;;;;0.70;75.01;97608.05;1609109;89;20531;-86
2021/01/26 10:00:46;;;;;;;;;;;;;;;0.77;74.94;97608.14;1610870;88;24870;-86
2021/01/26 10:03:35;;;;;;;;;;;;;;;0.88;74.89;97606.38;1610097;88;35940;-85
2021/01/26 10:06:21;;;;;;;;;;;;;;;0.92;74.82;97610.06;1607722;89;26565;-87
2021/01/26 10:09:07;;;;;;;;;;;;;;;0.93;74.77;97613.00;1608625;89;24482;-87
2021/01/26 10:11:55;;;;;;;;;;;;;;;0.93;74.69;97614.28;1605274;88;20598;-87
2021/01/26 10:14:41;;;;;;;;;;;;;;;0.86;74.62;97619.34;1610636;88;25379;-86
2021/01/26 10:17:28;;;;;;;;;;;;;;;0.84;74.54;97614.70;1611650;89;22140;-88
2021/01/26 10:20:15;;;;;;;;;;;;;;;0.90;74.47;97617.01;1611546;89;26201;-87
2021/01/26 10:23:01;;;;;;;;;;;;;;;0.99;74.42;97612.73;1601679;87;24361;-86
2021/01/26 10:25:47;;;;;;;;;;;;;;;1.09;74.38;97615.75;1632959;87;20295;-86
2021/01/26 10:28:33;;;;;;;;;;;;;;;1.15;74.37;97617.57;1637812;87;25048;-84
2021/01/26 10:31:21;;;;;;;;;;;;;;;1.21;74.34;97613.43;1588609;88;22120;-88
2021/01/26 10:34:07;;;;;;;;;;;;;;;1.22;74.29;97612.98;1573742;91;26325;-86
2021/01/26 10:36:54;;;;;;;;;;;;;;;1.23;74.24;97610.34;1603213;89;24713;-85
2021/01/26 10:39:40;;;;;;;;;;;;;;;1.21;74.16;97600.55;1597402;89;20318;-86
2021/01/26 10:42:26;;;;;;;;;;;;;;;1.22;74.10;97611.24;1593561;89;24986;-84
2021/01/26 10:45:12;;;;;;;;;;;;;;;1.19;74.01;97612.69;1636475;86;22149;-88
2021/01/26 10:48:00;;;;;;;;;;;;;;;1.15;73.94;97617.57;1636515;87;26168;-88
2021/01/26 10:50:46;;;;;;;;;;;;;;;1.08;73.81;97621.34;1637017;87;25482;-88
2021/01/26 10:53:33;;;;;;;;;;;;;;;1.04;73.72;97618.50;1637481;87;20363;-88
2021/01/26 10:56:19;;;;;;;;;;;;;;;0.95;73.64;97622.79;1635936;87;24896;-88
2021/01/26 10:59:04;;;;;;;;;;;;;;;0.88;73.55;97638.13;1636836;87;22102;-88
2021/01/26 11:01:52;;;;;;;;;;;;;;;0.81;73.51;97629.85;1636943;87;26311;-86
2021/01/26 11:04:39;;;;;;;;;;;;;;;0.79;73.50;97633.38;1637153;87;24604;-85
2021/01/26 11:07:27;;;;;;;;;;;;;;;0.78;73.49;97620.12;1636337;87;20621;-85
2021/01/26 11:10:17;;;;;;;;;;;;;;;0.82;73.49;97622.94;1638169;87;24819;-84
2021/01/26 11:13:03;;;;;;;;;;;;;;;0.83;73.53;97622.04;1637248;87;22159;-87
2021/01/26 11:15:49;;;;;;;;;;;;;;;0.84;73.55;97624.55;1638275;87;26119;-88
2021/01/26 11:18:34;;;;;;;;;;;;;;;0.93;73.56;97623.30;1635470;86;23972;-88
2021/01/26 11:21:21;;;;;;;;;;;;;;;1.01;73.60;97621.23;1637394;87;20296;-86
2021/01/26 11:24:10;;;;;;;;;;;;;;;1.07;73.63;97618.39;1634126;87;24900;-88
2021/01/26 11:26:55;;;;;;;;;;;;;;;1.15;73.66;97618.02;1629896;87;21945;-86
2021/01/26 11:29:42;;;;;;;;;;;;;;;1.23;73.70;97617.23;1634566;87;26130;-86
2021/01/26 11:32:28;;;;;;;;;;;;;;;1.30;73.72;97611.35;1634560;87;24589;-88
2021/01/26 11:35:15;;;;;;;;;;;;;;;1.34;73.72;97601.27;1633960;87;20341;-87
2021/01/26 11:38:01;;;;;;;;;;;;;;;1.36;73.72;97599.47;1629357;87;24985;-87
2021/01/26 11:40:46;;;;;;;;;;;;;;;1.40;73.72;97603.58;1633569;87;22360;-86
2021/01/26 11:43:33;;;;;;;;;;;;;;;1.48;73.70;97593.72;1633996;87;26179;-87
2021/01/26 11:46:19;;;;;;;;;;;;;;;1.59;73.70;97599.21;1633981;87;24618;-86
2021/01/26 11:49:05;;;;;;;;;;;;;;;1.64;73.68;97599.83;1588366;89;20287;-85
2021/01/26 11:51:51;;;;;;;;;;;;;;;1.65;73.64;97595.89;1586443;90;25950;-85
2021/01/26 11:54:37;;;;;;;;;;;;;;;1.65;73.60;97592.02;1589050;90;22995;-85
2021/01/26 11:57:23;;;;;;;;;;;;;;;1.69;73.51;97595.31;1585696;88;26182;-86
2021/01/26 12:00:09;;;;;;;;;;;;;;;1.77;73.47;97593.64;1586009;89;24882;-86
2021/01/26 12:02:56;;;;;;;;;;;;;;;1.84;73.42;97591.98;1582249;90;20471;-87
2021/01/26 12:05:42;;;;;;;;;;;;;;;1.85;73.37;97585.92;1585120;90;24935;-86
2021/01/26 12:08:28;;;;;;;;;;;;;;;1.86;73.28;97584.99;1583534;89;22127;-89
2021/01/26 12:11:14;;;;;;;;;;;;;;;1.90;73.18;97588.28;1585226;90;26327;-90
2021/01/26 12:14:01;;;;;;;;;;;;;;;1.88;73.09;97585.77;1588241;89;24603;-87
2021/01/26 12:16:47;;;;;;;;;;;;;;;1.86;72.99;97586.28;1588932;90;20346;-88
2021/01/26 12:19:33;;;;;;;;;;;;;;;1.90;72.90;97586.53;1573435;91;24919;-88
2021/01/26 12:22:19;;;;;;;;;;;;;;;1.97;72.84;97584.47;1592269;89;22488;-87
2021/01/26 12:25:05;;;;;;;;;;;;;;;1.96;72.76;97584.95;1611364;88;26153;-87
2021/01/26 12:27:53;;;;;;;;;;;;;;;1.98;72.68;97586.14;1613180;88;25640;-87
2021/01/26 12:30:40;;;;;;;;;;;;;;;1.95;72.59;97588.44;1612836;88;20367;-87
2021/01/26 12:33:26;;;;;;;;;;;;;;;1.90;72.49;97582.66;1612898;88;24922;-88
2021/01/26 12:36:13;;;;;;;;;;;;;;;1.84;72.36;97584.25;1613604;88;22232;-87
2021/01/26 12:42:05;;;;;;;;;;;;;;;1.75;72.09;97577.39;1622158;88;24425;-89
2021/01/26 12:44:50;;;;;;;;;;;;;;;1.68;71.96;97569.97;1618977;88;20299;-89
2021/01/26 12:47:37;;;;;;;;;;;;;;;1.61;71.86;97576.78;1620379;87;25160;-89
2021/01/26 12:50:25;;;;;;;;;;;;;;;1.51;71.72;97579.41;1618659;87;23017;-89
2021/01/26 12:53:13;;;;;;;;;;;;;;;1.47;71.63;97581.31;1622097;87;27027;-85
2021/01/26 12:55:59;;;;;;;;;;;;;;;1.45;71.54;97578.41;1617252;88;24647;-85
2021/01/26 12:58:45;;;;;;;;;;;;;;;1.50;71.47;97581.61;1616450;87;20292;-88
2021/01/26 13:01:31;;;;;;;;;;;;;;;1.56;71.43;97583.45;1615758;87;25121;-87
2021/01/26 13:04:20;;;;;;;;;;;;;;;1.66;71.44;97581.26;1617489;87;22204;-87
2021/01/26 13:07:07;;;;;;;;;;;;;;;1.70;71.41;97584.06;1615100;88;26107;-89
2021/01/26 13:09:53;;;;;;;;;;;;;;;1.77;71.39;97590.61;1616412;88;24646;-89
2021/01/26 13:12:39;;;;;;;;;;;;;;;1.92;71.39;97592.44;1618676;87;20370;-90
2021/01/26 13:15:27;;;;;;;;;;;;;;;1.87;71.38;97589.70;1615294;88;25354;-88
2021/01/26 13:18:14;;;;;;;;;;;;;;;1.80;71.35;97587.06;1617071;88;22122;-89
2021/01/26 13:21:01;;;;;;;;;;;;;;;1.79;71.29;97589.25;1615496;88;26391;-87
2021/01/26 13:23:47;;;;;;;;;;;;;;;1.78;71.23;97587.13;1618386;88;25481;-87
2021/01/26 13:26:36;;;;;;;;;;;;;;;1.80;71.17;97586.58;1618881;88;20296;-87
2021/01/26 13:29:22;;;;;;;;;;;;;;;1.84;71.12;97591.98;1617904;88;25819;-87
2021/01/26 13:32:08;;;;;;;;;;;;;;;1.88;71.10;97587.50;1615756;88;22076;-86
2021/01/26 13:34:54;;;;;;;;;;;;;;;1.91;71.06;97590.77;1612762;88;26322;-87
2021/01/26 13:37:40;;;;;;;;;;;;;;;1.92;71.03;97592.89;1617415;88;24660;-87
2021/01/26 13:40:26;;;;;;;;;;;;;;;1.90;70.97;97596.86;1618381;87;20363;-87
2021/01/26 13:43:13;;;;;;;;;;;;;;;1.88;70.93;97592.66;1633877;87;24927;-87
2021/01/26 13:45:59;;;;;;;;;;;;;;;1.87;70.85;97594.41;1633994;86;22156;-87
2021/01/26 13:48:45;;;;;;;;;;;;;;;1.83;70.78;97589.02;1635274;87;26229;-87
2021/01/26 13:51:34;;;;;;;;;;;;;;;1.79;70.73;97590.54;1633020;87;24643;-88
2021/01/26 13:54:24;;;;;;;;;;;;;;;1.71;70.64;97593.92;1631907;87;20279;-86
2021/01/26 13:57:13;;;;;;;;;;;;;;;1.72;70.56;97591.28;1717910;83;25007;-88
2021/01/26 14:00:01;;;;;;;;;;;;;;;1.69;70.51;97594.83;1719525;82;22475;-86
2021/01/26 14:02:47;;;;;;;;;;;;;;;1.62;70.42;97593.92;1720180;83;26299;-86
2021/01/26 14:05:33;;;;;;;;;;;;;;;1.56;70.34;97593.77;1717849;83;24860;-85
2021/01/26 14:08:20;;;;;;;;;;;;;;;1.48;70.24;97593.72;1718355;82;20568;-86
2021/01/26 14:11:07;;;;;;;;;;;;;;;1.42;70.13;97595.33;1719202;83;24917;-86
2021/01/26 14:13:53;;;;;;;;;;;;;;;1.36;70.05;97591.30;1716424;83;22623;-88
2021/01/26 14:16:40;;;;;;;;;;;;;;;1.32;69.95;97596.63;1720611;83;26187;-88
2021/01/26 14:19:28;;;;;;;;;;;;;;;1.29;69.88;97599.37;1730202;82;24392;-88
2021/01/26 14:22:16;;;;;;;;;;;;;;;1.27;69.81;97595.56;1719089;83;20383;-87
2021/01/26 14:25:02;;;;;;;;;;;;;;;1.25;69.74;97602.06;1717965;83;25179;-88
2021/01/26 14:27:48;;;;;;;;;;;;;;;1.19;69.67;97607.53;1720227;83;22209;-88
2021/01/26 14:30:34;;;;;;;;;;;;;;;1.11;69.59;97601.88;1720175;83;26146;-88
2021/01/26 14:33:21;;;;;;;;;;;;;;;1.09;69.51;97600.30;1715424;83;24619;-88
2021/01/26 14:36:07;;;;;;;;;;;;;;;1.09;69.42;97604.16;1718765;83;20268;-89